Startpagina
METAR-TAF:

METAR-TAF

Vliegvelden :

Lublin, Polen

breedte: 51-13-55N, lengte: 22-41-25E, hoogte: 203 m

Actueel weer

Dit bericht is 36 minuten geleden gemaakt, om 23:00 UTC
Wind 1 kt uit variabele richting
Temperatuur 17°C
Vochtigheid 88%
Druk 1020 hPa
Zicht 10 km of meer
geen wolken onder 1500 m en geen cumulonimbus

METAR: EPLB 182300Z VRB01KT CAVOK 17/15 Q1020

Tijdstip: 01:36 (23:36 UTC)

Verwachting

Dit bericht is 3 uur en het 6 minuten geleden gemaakt, om 20:30 UTC
Verwachting geldig van 18 om 21 UTC tot 19 om 06 UTC
Wind 3 kt uit variabele richting
Zicht 10 km of meer
geen wolken onder 1500 m en geen cumulonimbus

TAF: EPLB 182030Z 1821/1906 VRB03KT CAVOK

Waarnemingen en weersverwachtingen van meer dan 4000 vliegvelden (METAR en TAF).

De beschikbare stations zijn de gele en rode punten op de kaart.

Ga met uw muis naar het station om de naam te zien.

Klik dan om waarnemingen en weersverwachtingen te zien.

kaart wijzigen: klik op de groene knoppen met een zwart kruis om in te zoomen, op de groene knop met een streepje om uit te zoomen of op de groene pijlen voor aangrenzende kaarten.


METAR-TAF: